sensor_id;sensor_type;location;lat;lon;timestamp;temperature;humidity
23719;DHT22;43322;52.230;5.702;2023-04-24T00:02:04;9.70;99.90
23719;DHT22;43322;52.230;5.702;2023-04-24T00:04:32;9.70;99.90
23719;DHT22;43322;52.230;5.702;2023-04-24T00:07:00;9.70;99.90
23719;DHT22;43322;52.230;5.702;2023-04-24T00:09:26;9.60;99.90
23719;DHT22;43322;52.230;5.702;2023-04-24T00:11:53;9.60;99.90
23719;DHT22;43322;52.230;5.702;2023-04-24T00:14:21;9.60;99.90
23719;DHT22;43322;52.230;5.702;2023-04-24T00:16:48;9.60;99.90
23719;DHT22;43322;52.230;5.702;2023-04-24T00:19:14;9.60;99.90
23719;DHT22;43322;52.230;5.702;2023-04-24T00:21:41;9.60;99.90
23719;DHT22;43322;52.230;5.702;2023-04-24T00:24:09;9.50;99.90
23719;DHT22;43322;52.230;5.702;2023-04-24T00:26:36;9.50;99.90
23719;DHT22;43322;52.230;5.702;2023-04-24T00:29:03;9.50;99.90
23719;DHT22;43322;52.230;5.702;2023-04-24T00:31:30;9.40;99.90
23719;DHT22;43322;52.230;5.702;2023-04-24T00:34:00;9.40;99.90
23719;DHT22;43322;52.230;5.702;2023-04-24T00:36:26;9.40;99.90
23719;DHT22;43322;52.230;5.702;2023-04-24T00:38:53;9.50;99.90
23719;DHT22;43322;52.230;5.702;2023-04-24T00:41:21;9.40;99.90
23719;DHT22;43322;52.230;5.702;2023-04-24T00:43:48;9.50;99.90
23719;DHT22;43322;52.230;5.702;2023-04-24T00:46:14;9.50;99.90
23719;DHT22;43322;52.230;5.702;2023-04-24T00:48:43;9.40;99.90
23719;DHT22;43322;52.230;5.702;2023-04-24T00:51:10;9.50;99.90
23719;DHT22;43322;52.230;5.702;2023-04-24T00:53:36;9.50;99.90
23719;DHT22;43322;52.230;5.702;2023-04-24T00:56:04;9.40;99.90
23719;DHT22;43322;52.230;5.702;2023-04-24T00:58:33;9.50;99.90
23719;DHT22;43322;52.230;5.702;2023-04-24T01:01:00;9.40;99.90
23719;DHT22;43322;52.230;5.702;2023-04-24T01:03:29;9.40;99.90
23719;DHT22;43322;52.230;5.702;2023-04-24T01:05:57;9.30;99.90
23719;DHT22;43322;52.230;5.702;2023-04-24T01:08:24;9.20;99.90
23719;DHT22;43322;52.230;5.702;2023-04-24T01:10:52;9.20;99.90
23719;DHT22;43322;52.230;5.702;2023-04-24T01:13:18;9.30;99.90
23719;DHT22;43322;52.230;5.702;2023-04-24T01:15:47;9.30;99.90
23719;DHT22;43322;52.230;5.702;2023-04-24T01:18:14;9.40;99.90
23719;DHT22;43322;52.230;5.702;2023-04-24T01:20:42;9.30;99.90
23719;DHT22;43322;52.230;5.702;2023-04-24T01:23:11;9.30;99.90
23719;DHT22;43322;52.230;5.702;2023-04-24T01:25:37;9.30;99.90
23719;DHT22;43322;52.230;5.702;2023-04-24T01:28:04;9.30;99.90
23719;DHT22;43322;52.230;5.702;2023-04-24T01:30:31;9.30;99.90
23719;DHT22;43322;52.230;5.702;2023-04-24T01:32:58;9.30;99.90
23719;DHT22;43322;52.230;5.702;2023-04-24T01:35:26;9.20;99.90
23719;DHT22;43322;52.230;5.702;2023-04-24T01:37:53;9.20;99.90
23719;DHT22;43322;52.230;5.702;2023-04-24T01:40:21;9.20;99.90
23719;DHT22;43322;52.230;5.702;2023-04-24T01:42:48;9.20;99.90
23719;DHT22;43322;52.230;5.702;2023-04-24T01:45:14;9.20;99.90
23719;DHT22;43322;52.230;5.702;2023-04-24T01:47:41;9.30;99.90
23719;DHT22;43322;52.230;5.702;2023-04-24T01:50:09;9.30;99.90
23719;DHT22;43322;52.230;5.702;2023-04-24T01:52:36;9.30;99.90
23719;DHT22;43322;52.230;5.702;2023-04-24T01:55:03;9.30;99.90
23719;DHT22;43322;52.230;5.702;2023-04-24T01:57:33;9.30;99.90
23719;DHT22;43322;52.230;5.702;2023-04-24T02:00:00;9.30;99.90
23719;DHT22;43322;52.230;5.702;2023-04-24T02:02:26;9.30;99.90
23719;DHT22;43322;52.230;5.702;2023-04-24T02:04:54;9.30;99.90
23719;DHT22;43322;52.230;5.702;2023-04-24T02:07:20;9.50;99.90
23719;DHT22;43322;52.230;5.702;2023-04-24T02:09:47;9.20;99.90
23719;DHT22;43322;52.230;5.702;2023-04-24T02:12:14;9.30;99.90
23719;DHT22;43322;52.230;5.702;2023-04-24T02:14:44;9.30;99.90
23719;DHT22;43322;52.230;5.702;2023-04-24T02:17:10;9.30;99.90
23719;DHT22;43322;52.230;5.702;2023-04-24T02:19:38;9.40;99.90
23719;DHT22;43322;52.230;5.702;2023-04-24T02:22:05;9.30;99.90
23719;DHT22;43322;52.230;5.702;2023-04-24T02:24:32;9.30;99.90
23719;DHT22;43322;52.230;5.702;2023-04-24T02:26:59;10.30;99.90
23719;DHT22;43322;52.230;5.702;2023-04-24T02:29:25;9.30;99.90
23719;DHT22;43322;52.230;5.702;2023-04-24T02:31:53;9.30;99.90
23719;DHT22;43322;52.230;5.702;2023-04-24T02:34:20;9.40;99.90
23719;DHT22;43322;52.230;5.702;2023-04-24T02:36:46;9.30;99.90
23719;DHT22;43322;52.230;5.702;2023-04-24T02:39:13;9.30;99.90
23719;DHT22;43322;52.230;5.702;2023-04-24T02:41:42;9.40;99.90
23719;DHT22;43322;52.230;5.702;2023-04-24T02:44:08;9.40;99.90
23719;DHT22;43322;52.230;5.702;2023-04-24T02:46:35;9.50;99.90
23719;DHT22;43322;52.230;5.702;2023-04-24T02:49:03;9.50;99.90
23719;DHT22;43322;52.230;5.702;2023-04-24T02:51:30;9.40;99.90
23719;DHT22;43322;52.230;5.702;2023-04-24T02:53:57;9.00;99.90
23719;DHT22;43322;52.230;5.702;2023-04-24T02:56:23;9.50;99.90
23719;DHT22;43322;52.230;5.702;2023-04-24T02:58:50;9.20;99.90
23719;DHT22;43322;52.230;5.702;2023-04-24T03:01:17;9.40;99.90
23719;DHT22;43322;52.230;5.702;2023-04-24T03:03:44;9.40;99.90
23719;DHT22;43322;52.230;5.702;2023-04-24T03:06:12;9.40;99.90
23719;DHT22;43322;52.230;5.702;2023-04-24T03:08:38;9.30;99.90
23719;DHT22;43322;52.230;5.702;2023-04-24T03:11:05;9.40;99.90
23719;DHT22;43322;52.230;5.702;2023-04-24T03:13:32;9.50;99.90
23719;DHT22;43322;52.230;5.702;2023-04-24T03:15:58;9.40;99.90
23719;DHT22;43322;52.230;5.702;2023-04-24T03:18:25;9.40;99.90
23719;DHT22;43322;52.230;5.702;2023-04-24T03:20:52;9.40;99.90
23719;DHT22;43322;52.230;5.702;2023-04-24T03:23:20;9.40;99.90
23719;DHT22;43322;52.230;5.702;2023-04-24T03:25:46;9.40;99.90
23719;DHT22;43322;52.230;5.702;2023-04-24T03:28:13;9.50;99.90
23719;DHT22;43322;52.230;5.702;2023-04-24T03:30:40;9.50;99.90
23719;DHT22;43322;52.230;5.702;2023-04-24T03:33:07;9.40;99.90
23719;DHT22;43322;52.230;5.702;2023-04-24T03:35:35;9.50;99.90
23719;DHT22;43322;52.230;5.702;2023-04-24T03:38:01;9.50;99.90
23719;DHT22;43322;52.230;5.702;2023-04-24T03:40:31;9.50;99.90
23719;DHT22;43322;52.230;5.702;2023-04-24T03:42:59;10.40;99.90
23719;DHT22;43322;52.230;5.702;2023-04-24T03:45:25;9.50;99.90
23719;DHT22;43322;52.230;5.702;2023-04-24T03:47:52;9.40;99.90
23719;DHT22;43322;52.230;5.702;2023-04-24T03:50:18;9.40;99.90
23719;DHT22;43322;52.230;5.702;2023-04-24T03:52:45;9.40;99.90
23719;DHT22;43322;52.230;5.702;2023-04-24T03:55:12;9.40;99.90
23719;DHT22;43322;52.230;5.702;2023-04-24T03:57:40;9.40;99.90
23719;DHT22;43322;52.230;5.702;2023-04-24T04:00:08;9.40;99.90
23719;DHT22;43322;52.230;5.702;2023-04-24T04:02:35;9.40;99.90
23719;DHT22;43322;52.230;5.702;2023-04-24T04:05:02;9.50;99.90
23719;DHT22;43322;52.230;5.702;2023-04-24T04:07:28;9.50;99.90
23719;DHT22;43322;52.230;5.702;2023-04-24T04:09:56;9.40;99.90
23719;DHT22;43322;52.230;5.702;2023-04-24T04:12:22;9.50;99.90
23719;DHT22;43322;52.230;5.702;2023-04-24T04:14:50;9.40;99.90
23719;DHT22;43322;52.230;5.702;2023-04-24T04:17:17;9.40;99.90
23719;DHT22;43322;52.230;5.702;2023-04-24T04:19:44;9.40;99.90
23719;DHT22;43322;52.230;5.702;2023-04-24T04:22:11;9.40;99.90
23719;DHT22;43322;52.230;5.702;2023-04-24T04:24:37;9.40;99.90
23719;DHT22;43322;52.230;5.702;2023-04-24T04:27:06;9.40;99.90
23719;DHT22;43322;52.230;5.702;2023-04-24T04:29:33;9.40;99.90
23719;DHT22;43322;52.230;5.702;2023-04-24T04:32:02;9.50;99.90
23719;DHT22;43322;52.230;5.702;2023-04-24T04:34:29;9.40;99.90
23719;DHT22;43322;52.230;5.702;2023-04-24T04:36:57;9.40;99.90
23719;DHT22;43322;52.230;5.702;2023-04-24T04:39:26;9.40;99.90
23719;DHT22;43322;52.230;5.702;2023-04-24T04:41:53;9.30;99.90
23719;DHT22;43322;52.230;5.702;2023-04-24T04:44:20;9.30;99.90
23719;DHT22;43322;52.230;5.702;2023-04-24T04:46:47;9.30;99.90
23719;DHT22;43322;52.230;5.702;2023-04-24T04:49:15;9.30;99.90
23719;DHT22;43322;52.230;5.702;2023-04-24T04:51:42;9.30;99.90
23719;DHT22;43322;52.230;5.702;2023-04-24T04:54:08;9.30;99.90
23719;DHT22;43322;52.230;5.702;2023-04-24T04:56:35;9.20;99.90
23719;DHT22;43322;52.230;5.702;2023-04-24T04:59:02;9.30;99.90
23719;DHT22;43322;52.230;5.702;2023-04-24T05:01:28;9.30;99.90
23719;DHT22;43322;52.230;5.702;2023-04-24T05:03:55;9.30;99.90
23719;DHT22;43322;52.230;5.702;2023-04-24T05:06:23;9.40;99.90
23719;DHT22;43322;52.230;5.702;2023-04-24T05:08:51;9.30;99.90
23719;DHT22;43322;52.230;5.702;2023-04-24T05:11:22;9.30;99.90
23719;DHT22;43322;52.230;5.702;2023-04-24T05:13:49;9.30;99.90
23719;DHT22;43322;52.230;5.702;2023-04-24T05:16:15;9.30;99.90
23719;DHT22;43322;52.230;5.702;2023-04-24T05:18:42;9.20;99.90
23719;DHT22;43322;52.230;5.702;2023-04-24T05:21:09;9.20;99.90
23719;DHT22;43322;52.230;5.702;2023-04-24T05:23:37;9.20;99.90
23719;DHT22;43322;52.230;5.702;2023-04-24T05:26:03;9.20;99.90
23719;DHT22;43322;52.230;5.702;2023-04-24T05:28:30;9.10;99.90
23719;DHT22;43322;52.230;5.702;2023-04-24T05:30:57;9.10;99.90
23719;DHT22;43322;52.230;5.702;2023-04-24T05:33:24;9.10;99.90
23719;DHT22;43322;52.230;5.702;2023-04-24T05:35:51;9.20;99.90
23719;DHT22;43322;52.230;5.702;2023-04-24T05:38:18;9.20;99.90
23719;DHT22;43322;52.230;5.702;2023-04-24T05:40:46;9.30;99.90
23719;DHT22;43322;52.230;5.702;2023-04-24T05:43:13;9.30;99.90
23719;DHT22;43322;52.230;5.702;2023-04-24T05:45:40;9.20;99.90
23719;DHT22;43322;52.230;5.702;2023-04-24T05:48:06;9.30;99.90
23719;DHT22;43322;52.230;5.702;2023-04-24T05:50:33;9.30;99.90
23719;DHT22;43322;52.230;5.702;2023-04-24T05:53:00;9.30;99.90
23719;DHT22;43322;52.230;5.702;2023-04-24T05:55:27;9.40;99.90
23719;DHT22;43322;52.230;5.702;2023-04-24T05:57:55;9.40;99.90
23719;DHT22;43322;52.230;5.702;2023-04-24T06:00:23;9.40;99.90
23719;DHT22;43322;52.230;5.702;2023-04-24T06:02:50;9.40;99.90
23719;DHT22;43322;52.230;5.702;2023-04-24T06:05:17;9.40;99.90
23719;DHT22;43322;52.230;5.702;2023-04-24T06:07:44;9.40;99.90
23719;DHT22;43322;52.230;5.702;2023-04-24T06:10:11;9.50;99.90
23719;DHT22;43322;52.230;5.702;2023-04-24T06:12:37;9.50;99.90
23719;DHT22;43322;52.230;5.702;2023-04-24T06:15:07;9.50;99.90
23719;DHT22;43322;52.230;5.702;2023-04-24T06:17:34;9.50;99.90
23719;DHT22;43322;52.230;5.702;2023-04-24T06:20:00;9.40;99.90
23719;DHT22;43322;52.230;5.702;2023-04-24T06:22:30;9.40;99.90
23719;DHT22;43322;52.230;5.702;2023-04-24T06:24:56;9.50;99.90
23719;DHT22;43322;52.230;5.702;2023-04-24T06:27:23;9.30;99.90
23719;DHT22;43322;52.230;5.702;2023-04-24T06:29:50;9.30;99.90
23719;DHT22;43322;52.230;5.702;2023-04-24T06:32:21;9.20;99.90
23719;DHT22;43322;52.230;5.702;2023-04-24T06:34:48;9.20;99.90
23719;DHT22;43322;52.230;5.702;2023-04-24T06:37:15;9.10;99.90
23719;DHT22;43322;52.230;5.702;2023-04-24T06:39:41;9.10;99.90
23719;DHT22;43322;52.230;5.702;2023-04-24T06:42:08;9.10;99.90
23719;DHT22;43322;52.230;5.702;2023-04-24T06:44:35;9.10;99.90
23719;DHT22;43322;52.230;5.702;2023-04-24T06:47:06;9.10;99.90
23719;DHT22;43322;52.230;5.702;2023-04-24T06:49:34;9.10;99.90
23719;DHT22;43322;52.230;5.702;2023-04-24T06:52:00;9.10;99.90
23719;DHT22;43322;52.230;5.702;2023-04-24T06:54:27;9.10;99.90
23719;DHT22;43322;52.230;5.702;2023-04-24T06:56:54;9.10;99.90
23719;DHT22;43322;52.230;5.702;2023-04-24T06:59:22;9.10;99.90
23719;DHT22;43322;52.230;5.702;2023-04-24T07:01:49;9.20;99.90
23719;DHT22;43322;52.230;5.702;2023-04-24T07:04:16;9.10;99.90
23719;DHT22;43322;52.230;5.702;2023-04-24T07:06:45;9.10;99.90
23719;DHT22;43322;52.230;5.702;2023-04-24T07:09:12;9.00;99.90
23719;DHT22;43322;52.230;5.702;2023-04-24T07:11:41;9.00;99.90
23719;DHT22;43322;52.230;5.702;2023-04-24T07:14:07;9.00;99.90
23719;DHT22;43322;52.230;5.702;2023-04-24T07:16:35;9.00;99.90
23719;DHT22;43322;52.230;5.702;2023-04-24T07:19:02;9.00;99.90
23719;DHT22;43322;52.230;5.702;2023-04-24T07:21:28;9.00;99.90
23719;DHT22;43322;52.230;5.702;2023-04-24T07:23:57;9.00;99.90
23719;DHT22;43322;52.230;5.702;2023-04-24T07:26:25;9.00;99.90
23719;DHT22;43322;52.230;5.702;2023-04-24T07:28:52;9.00;99.90
23719;DHT22;43322;52.230;5.702;2023-04-24T07:31:19;9.00;99.90
23719;DHT22;43322;52.230;5.702;2023-04-24T07:33:46;8.90;99.90
23719;DHT22;43322;52.230;5.702;2023-04-24T07:36:13;8.90;99.90
23719;DHT22;43322;52.230;5.702;2023-04-24T07:38:44;8.90;99.90
23719;DHT22;43322;52.230;5.702;2023-04-24T07:41:12;8.80;99.90
23719;DHT22;43322;52.230;5.702;2023-04-24T07:43:39;8.70;99.90
23719;DHT22;43322;52.230;5.702;2023-04-24T07:46:05;8.70;99.90
23719;DHT22;43322;52.230;5.702;2023-04-24T07:48:32;8.70;99.90
23719;DHT22;43322;52.230;5.702;2023-04-24T07:50:59;8.70;99.90
23719;DHT22;43322;52.230;5.702;2023-04-24T07:53:26;8.70;99.90
23719;DHT22;43322;52.230;5.702;2023-04-24T07:55:54;8.60;99.90
23719;DHT22;43322;52.230;5.702;2023-04-24T07:58:22;8.50;99.90
23719;DHT22;43322;52.230;5.702;2023-04-24T08:00:48;8.50;99.90
23719;DHT22;43322;52.230;5.702;2023-04-24T08:03:15;8.50;99.90
23719;DHT22;43322;52.230;5.702;2023-04-24T08:05:45;8.50;99.90
23719;DHT22;43322;52.230;5.702;2023-04-24T08:08:11;8.40;99.90
23719;DHT22;43322;52.230;5.702;2023-04-24T08:10:38;8.50;99.90
23719;DHT22;43322;52.230;5.702;2023-04-24T08:13:05;8.60;99.90
23719;DHT22;43322;52.230;5.702;2023-04-24T08:15:33;8.50;99.90
23719;DHT22;43322;52.230;5.702;2023-04-24T08:18:00;8.50;99.90
23719;DHT22;43322;52.230;5.702;2023-04-24T08:20:26;8.60;99.90
23719;DHT22;43322;52.230;5.702;2023-04-24T08:22:53;8.70;99.90
23719;DHT22;43322;52.230;5.702;2023-04-24T08:25:20;8.60;99.90
23719;DHT22;43322;52.230;5.702;2023-04-24T08:27:48;8.70;99.90
23719;DHT22;43322;52.230;5.702;2023-04-24T08:30:15;8.70;99.90
23719;DHT22;43322;52.230;5.702;2023-04-24T08:32:43;8.70;99.90
23719;DHT22;43322;52.230;5.702;2023-04-24T08:35:10;8.80;99.90
23719;DHT22;43322;52.230;5.702;2023-04-24T08:37:36;8.80;99.90
23719;DHT22;43322;52.230;5.702;2023-04-24T08:40:06;8.90;99.90
23719;DHT22;43322;52.230;5.702;2023-04-24T08:42:37;8.90;99.90
23719;DHT22;43322;52.230;5.702;2023-04-24T08:45:04;8.90;99.90
23719;DHT22;43322;52.230;5.702;2023-04-24T08:47:32;8.90;99.90
23719;DHT22;43322;52.230;5.702;2023-04-24T08:50:02;8.80;99.90
23719;DHT22;43322;52.230;5.702;2023-04-24T08:52:32;8.80;99.90
23719;DHT22;43322;52.230;5.702;2023-04-24T08:55:00;8.80;99.90
23719;DHT22;43322;52.230;5.702;2023-04-24T08:57:27;8.60;99.90
23719;DHT22;43322;52.230;5.702;2023-04-24T08:59:54;8.50;99.90
23719;DHT22;43322;52.230;5.702;2023-04-24T09:02:22;8.50;99.90
23719;DHT22;43322;52.230;5.702;2023-04-24T09:04:49;8.50;99.90
23719;DHT22;43322;52.230;5.702;2023-04-24T09:07:18;8.50;99.90
23719;DHT22;43322;52.230;5.702;2023-04-24T09:09:45;8.60;99.90
23719;DHT22;43322;52.230;5.702;2023-04-24T09:12:12;8.50;99.90
23719;DHT22;43322;52.230;5.702;2023-04-24T09:14:39;8.40;99.90
23719;DHT22;43322;52.230;5.702;2023-04-24T09:17:10;8.40;99.90
23719;DHT22;43322;52.230;5.702;2023-04-24T09:19:37;8.50;99.90
23719;DHT22;43322;52.230;5.702;2023-04-24T09:22:04;8.50;99.90
23719;DHT22;43322;52.230;5.702;2023-04-24T09:24:33;8.50;99.90
23719;DHT22;43322;52.230;5.702;2023-04-24T09:27:01;8.50;99.90
23719;DHT22;43322;52.230;5.702;2023-04-24T09:29:28;8.50;99.90
23719;DHT22;43322;52.230;5.702;2023-04-24T09:31:55;8.50;99.90
23719;DHT22;43322;52.230;5.702;2023-04-24T09:34:22;8.50;99.90
23719;DHT22;43322;52.230;5.702;2023-04-24T09:36:50;8.50;99.90
23719;DHT22;43322;52.230;5.702;2023-04-24T09:39:17;8.50;99.90
23719;DHT22;43322;52.230;5.702;2023-04-24T09:41:48;8.50;99.90
23719;DHT22;43322;52.230;5.702;2023-04-24T09:44:16;8.60;99.90
23719;DHT22;43322;52.230;5.702;2023-04-24T09:46:44;8.80;99.90
23719;DHT22;43322;52.230;5.702;2023-04-24T09:49:13;9.00;99.90
23719;DHT22;43322;52.230;5.702;2023-04-24T09:51:41;9.30;99.90
23719;DHT22;43322;52.230;5.702;2023-04-24T09:54:14;9.50;99.90
23719;DHT22;43322;52.230;5.702;2023-04-24T09:56:43;9.40;99.90
23719;DHT22;43322;52.230;5.702;2023-04-24T09:59:12;9.10;99.90
23719;DHT22;43322;52.230;5.702;2023-04-24T10:01:38;9.00;99.90
23719;DHT22;43322;52.230;5.702;2023-04-24T10:04:15;8.90;99.90
23719;DHT22;43322;52.230;5.702;2023-04-24T10:06:42;9.00;99.90
23719;DHT22;43322;52.230;5.702;2023-04-24T10:09:09;8.90;99.90
23719;DHT22;43322;52.230;5.702;2023-04-24T10:11:37;8.80;99.90
23719;DHT22;43322;52.230;5.702;2023-04-24T10:14:09;8.70;99.90
23719;DHT22;43322;52.230;5.702;2023-04-24T10:16:38;8.80;99.90
23719;DHT22;43322;52.230;5.702;2023-04-24T10:19:06;9.00;99.90
23719;DHT22;43322;52.230;5.702;2023-04-24T10:21:34;9.20;99.90
23719;DHT22;43322;52.230;5.702;2023-04-24T10:24:01;9.50;99.90
23719;DHT22;43322;52.230;5.702;2023-04-24T10:26:29;9.60;99.90
23719;DHT22;43322;52.230;5.702;2023-04-24T10:28:57;9.60;99.90
23719;DHT22;43322;52.230;5.702;2023-04-24T10:31:25;9.60;99.90
23719;DHT22;43322;52.230;5.702;2023-04-24T10:33:54;9.70;99.90
23719;DHT22;43322;52.230;5.702;2023-04-24T10:36:22;9.90;99.90
23719;DHT22;43322;52.230;5.702;2023-04-24T10:38:53;9.90;99.90
23719;DHT22;43322;52.230;5.702;2023-04-24T10:41:21;10.00;99.90
23719;DHT22;43322;52.230;5.702;2023-04-24T10:43:49;9.90;99.90
23719;DHT22;43322;52.230;5.702;2023-04-24T10:46:30;10.00;99.90
23719;DHT22;43322;52.230;5.702;2023-04-24T10:48:58;10.20;99.90
23719;DHT22;43322;52.230;5.702;2023-04-24T10:51:44;10.30;99.90
23719;DHT22;43322;52.230;5.702;2023-04-24T10:54:25;10.20;99.90
23719;DHT22;43322;52.230;5.702;2023-04-24T10:56:53;10.40;99.90
23719;DHT22;43322;52.230;5.702;2023-04-24T10:59:26;10.30;99.90
23719;DHT22;43322;52.230;5.702;2023-04-24T11:01:54;10.30;99.90
23719;DHT22;43322;52.230;5.702;2023-04-24T11:04:32;10.40;99.90
23719;DHT22;43322;52.230;5.702;2023-04-24T11:07:00;10.10;99.90
23719;DHT22;43322;52.230;5.702;2023-04-24T11:09:30;10.00;99.90
23719;DHT22;43322;52.230;5.702;2023-04-24T11:12:05;9.90;99.90
23719;DHT22;43322;52.230;5.702;2023-04-24T11:15:00;9.70;99.90
23719;DHT22;43322;52.230;5.702;2023-04-24T11:17:30;9.60;99.90
23719;DHT22;43322;52.230;5.702;2023-04-24T11:20:03;9.50;99.90
23719;DHT22;43322;52.230;5.702;2023-04-24T11:22:33;9.50;99.90
23719;DHT22;43322;52.230;5.702;2023-04-24T11:25:00;9.70;99.90
23719;DHT22;43322;52.230;5.702;2023-04-24T11:27:30;10.00;99.90
23719;DHT22;43322;52.230;5.702;2023-04-24T11:30:02;10.90;99.90
23719;DHT22;43322;52.230;5.702;2023-04-24T11:32:33;10.40;99.90
23719;DHT22;43322;52.230;5.702;2023-04-24T11:35:03;10.50;99.90
23719;DHT22;43322;52.230;5.702;2023-04-24T11:37:34;10.70;99.90
23719;DHT22;43322;52.230;5.702;2023-04-24T11:40:02;10.70;99.90
23719;DHT22;43322;52.230;5.702;2023-04-24T11:42:33;10.90;99.90
23719;DHT22;43322;52.230;5.702;2023-04-24T11:45:00;11.00;99.90
23719;DHT22;43322;52.230;5.702;2023-04-24T11:47:28;11.10;99.90
23719;DHT22;43322;52.230;5.702;2023-04-24T11:49:56;11.40;99.90
23719;DHT22;43322;52.230;5.702;2023-04-24T11:52:24;11.50;99.90
23719;DHT22;43322;52.230;5.702;2023-04-24T11:54:51;11.90;99.90
23719;DHT22;43322;52.230;5.702;2023-04-24T11:57:19;11.80;99.90
23719;DHT22;43322;52.230;5.702;2023-04-24T11:59:47;11.30;99.90
23719;DHT22;43322;52.230;5.702;2023-04-24T12:02:21;11.10;99.90
23719;DHT22;43322;52.230;5.702;2023-04-24T12:04:48;10.90;99.90
23719;DHT22;43322;52.230;5.702;2023-04-24T12:07:14;10.80;99.90
23719;DHT22;43322;52.230;5.702;2023-04-24T12:09:43;10.40;99.90
23719;DHT22;43322;52.230;5.702;2023-04-24T12:12:11;10.20;99.90
23719;DHT22;43322;52.230;5.702;2023-04-24T12:14:47;10.20;99.90
23719;DHT22;43322;52.230;5.702;2023-04-24T12:17:14;10.20;99.90
23719;DHT22;43322;52.230;5.702;2023-04-24T12:19:45;10.20;99.90
23719;DHT22;43322;52.230;5.702;2023-04-24T12:22:12;10.10;99.90
23719;DHT22;43322;52.230;5.702;2023-04-24T12:25:01;10.10;99.90
23719;DHT22;43322;52.230;5.702;2023-04-24T12:27:30;10.00;99.90
23719;DHT22;43322;52.230;5.702;2023-04-24T12:29:59;9.80;99.90
23719;DHT22;43322;52.230;5.702;2023-04-24T12:32:26;9.60;99.90
23719;DHT22;43322;52.230;5.702;2023-04-24T12:34:54;9.60;99.90
23719;DHT22;43322;52.230;5.702;2023-04-24T12:37:23;9.60;99.90
23719;DHT22;43322;52.230;5.702;2023-04-24T12:40:02;10.00;99.90
23719;DHT22;43322;52.230;5.702;2023-04-24T12:42:30;10.50;99.90
23719;DHT22;43322;52.230;5.702;2023-04-24T12:44:57;10.50;99.90
23719;DHT22;43322;52.230;5.702;2023-04-24T12:47:25;10.40;99.90
23719;DHT22;43322;52.230;5.702;2023-04-24T12:49:52;10.40;99.90
23719;DHT22;43322;52.230;5.702;2023-04-24T12:52:20;10.20;99.90
23719;DHT22;43322;52.230;5.702;2023-04-24T12:54:47;10.10;99.90
23719;DHT22;43322;52.230;5.702;2023-04-24T12:57:15;10.10;99.90
23719;DHT22;43322;52.230;5.702;2023-04-24T12:59:42;10.10;99.90
23719;DHT22;43322;52.230;5.702;2023-04-24T13:02:09;10.10;99.90
23719;DHT22;43322;52.230;5.702;2023-04-24T13:04:36;10.10;99.90
23719;DHT22;43322;52.230;5.702;2023-04-24T13:07:02;9.90;99.90
23719;DHT22;43322;52.230;5.702;2023-04-24T13:09:30;9.80;99.90
23719;DHT22;43322;52.230;5.702;2023-04-24T13:11:56;9.70;99.90
23719;DHT22;43322;52.230;5.702;2023-04-24T13:14:25;9.60;99.90
23719;DHT22;43322;52.230;5.702;2023-04-24T13:16:51;9.40;99.90
23719;DHT22;43322;52.230;5.702;2023-04-24T13:19:18;9.40;99.90
23719;DHT22;43322;52.230;5.702;2023-04-24T13:21:45;9.40;99.90
23719;DHT22;43322;52.230;5.702;2023-04-24T13:24:12;9.30;99.90
23719;DHT22;43322;52.230;5.702;2023-04-24T13:26:41;9.20;99.90
23719;DHT22;43322;52.230;5.702;2023-04-24T13:29:07;9.40;99.90
23719;DHT22;43322;52.230;5.702;2023-04-24T13:31:36;9.60;99.90
23719;DHT22;43322;52.230;5.702;2023-04-24T13:34:02;9.80;99.90
23719;DHT22;43322;52.230;5.702;2023-04-24T13:36:29;10.00;99.90
23719;DHT22;43322;52.230;5.702;2023-04-24T13:38:57;10.00;99.90
23719;DHT22;43322;52.230;5.702;2023-04-24T13:41:23;10.20;99.90
23719;DHT22;43322;52.230;5.702;2023-04-24T13:43:50;10.10;99.90
23719;DHT22;43322;52.230;5.702;2023-04-24T13:46:17;10.20;99.90
23719;DHT22;43322;52.230;5.702;2023-04-24T13:48:45;10.10;99.90
23719;DHT22;43322;52.230;5.702;2023-04-24T13:51:12;10.00;99.90
23719;DHT22;43322;52.230;5.702;2023-04-24T13:53:38;9.90;99.90
23719;DHT22;43322;52.230;5.702;2023-04-24T13:56:05;9.80;99.90
23719;DHT22;43322;52.230;5.702;2023-04-24T13:58:33;9.60;99.90
23719;DHT22;43322;52.230;5.702;2023-04-24T14:01:00;9.50;99.90
23719;DHT22;43322;52.230;5.702;2023-04-24T14:03:27;9.40;99.90
23719;DHT22;43322;52.230;5.702;2023-04-24T14:05:55;9.40;99.90
23719;DHT22;43322;52.230;5.702;2023-04-24T14:08:22;9.50;99.90
23719;DHT22;43322;52.230;5.702;2023-04-24T14:10:50;9.60;99.90
23719;DHT22;43322;52.230;5.702;2023-04-24T14:13:17;9.80;99.90
23719;DHT22;43322;52.230;5.702;2023-04-24T14:15:44;9.90;99.90
23719;DHT22;43322;52.230;5.702;2023-04-24T14:18:11;10.20;99.90
23719;DHT22;43322;52.230;5.702;2023-04-24T14:20:37;10.90;99.90
23719;DHT22;43322;52.230;5.702;2023-04-24T14:23:05;11.20;99.90
23719;DHT22;43322;52.230;5.702;2023-04-24T14:25:32;11.00;99.90
23719;DHT22;43322;52.230;5.702;2023-04-24T14:27:59;10.70;99.90
23719;DHT22;43322;52.230;5.702;2023-04-24T14:30:26;10.20;99.90
23719;DHT22;43322;52.230;5.702;2023-04-24T14:32:52;9.60;99.90
23719;DHT22;43322;52.230;5.702;2023-04-24T14:35:19;9.40;99.90
23719;DHT22;43322;52.230;5.702;2023-04-24T14:37:46;9.60;99.90
23719;DHT22;43322;52.230;5.702;2023-04-24T14:40:15;10.20;99.90
23719;DHT22;43322;52.230;5.702;2023-04-24T14:42:41;10.70;99.90
23719;DHT22;43322;52.230;5.702;2023-04-24T14:45:09;11.20;99.90
23719;DHT22;43322;52.230;5.702;2023-04-24T14:47:36;11.50;99.90
23719;DHT22;43322;52.230;5.702;2023-04-24T14:50:04;11.80;99.90
23719;DHT22;43322;52.230;5.702;2023-04-24T14:52:30;11.80;99.90
23719;DHT22;43322;52.230;5.702;2023-04-24T14:54:57;11.20;99.90
23719;DHT22;43322;52.230;5.702;2023-04-24T14:57:25;11.00;99.90
23719;DHT22;43322;52.230;5.702;2023-04-24T14:59:52;11.40;99.90
23719;DHT22;43322;52.230;5.702;2023-04-24T15:02:18;11.10;99.90
23719;DHT22;43322;52.230;5.702;2023-04-24T15:04:45;10.90;99.90
23719;DHT22;43322;52.230;5.702;2023-04-24T15:07:12;10.90;99.90
23719;DHT22;43322;52.230;5.702;2023-04-24T15:09:39;11.30;99.90
23719;DHT22;43322;52.230;5.702;2023-04-24T15:12:05;11.60;99.90
23719;DHT22;43322;52.230;5.702;2023-04-24T15:14:33;11.50;99.90
23719;DHT22;43322;52.230;5.702;2023-04-24T15:17:00;11.00;99.90
23719;DHT22;43322;52.230;5.702;2023-04-24T15:19:27;11.30;99.90
23719;DHT22;43322;52.230;5.702;2023-04-24T15:21:53;11.80;99.90
23719;DHT22;43322;52.230;5.702;2023-04-24T15:24:20;11.70;99.90
23719;DHT22;43322;52.230;5.702;2023-04-24T15:26:47;11.40;99.90
23719;DHT22;43322;52.230;5.702;2023-04-24T15:29:13;11.50;99.90
23719;DHT22;43322;52.230;5.702;2023-04-24T15:31:41;11.80;99.90
23719;DHT22;43322;52.230;5.702;2023-04-24T15:34:08;11.80;99.90
23719;DHT22;43322;52.230;5.702;2023-04-24T15:36:35;11.90;99.90
23719;DHT22;43322;52.230;5.702;2023-04-24T15:39:02;12.10;99.90
23719;DHT22;43322;52.230;5.702;2023-04-24T15:41:29;12.30;99.90
23719;DHT22;43322;52.230;5.702;2023-04-24T15:43:57;12.20;99.90
23719;DHT22;43322;52.230;5.702;2023-04-24T15:46:23;11.80;99.90